sensor_id;sensor_type;location;lat;lon;timestamp;pressure;altitude;pressure_sealevel;temperature
61189;BMP280;47054;39.716;2.904;2023-04-25T00:01:46;100188.81;;;25.29
61189;BMP280;47054;39.716;2.904;2023-04-25T00:04:30;100179.13;;;25.28
61189;BMP280;47054;39.716;2.904;2023-04-25T00:07:18;100169.53;;;25.24
61189;BMP280;47054;39.716;2.904;2023-04-25T00:10:03;100174.47;;;25.29
61189;BMP280;47054;39.716;2.904;2023-04-25T00:12:47;100173.69;;;25.28
61189;BMP280;47054;39.716;2.904;2023-04-25T00:15:32;100176.41;;;25.28
61189;BMP280;47054;39.716;2.904;2023-04-25T00:18:17;100175.25;;;25.29
61189;BMP280;47054;39.716;2.904;2023-04-25T00:21:02;100171.75;;;25.29
61189;BMP280;47054;39.716;2.904;2023-04-25T00:23:47;100167.09;;;25.29
61189;BMP280;47054;39.716;2.904;2023-04-25T00:26:33;100174.47;;;25.29
61189;BMP280;47054;39.716;2.904;2023-04-25T00:29:18;100170.97;;;25.28
61189;BMP280;47054;39.716;2.904;2023-04-25T00:32:02;100175.63;;;25.28
61189;BMP280;47054;39.716;2.904;2023-04-25T00:34:47;100179.13;;;25.28
61189;BMP280;47054;39.716;2.904;2023-04-25T00:37:31;100186.09;;;25.29
61189;BMP280;47054;39.716;2.904;2023-04-25T00:40:16;100177.94;;;25.29
61189;BMP280;47054;39.716;2.904;2023-04-25T00:43:00;100181.84;;;25.28
61189;BMP280;47054;39.716;2.904;2023-04-25T00:45:47;100171.06;;;25.25
61189;BMP280;47054;39.716;2.904;2023-04-25T00:48:31;100170.97;;;25.28
61189;BMP280;47054;39.716;2.904;2023-04-25T00:51:20;100183.38;;;25.29
61189;BMP280;47054;39.716;2.904;2023-04-25T00:54:05;100182.59;;;25.29
61189;BMP280;47054;39.716;2.904;2023-04-25T00:56:49;100181.84;;;25.28
61189;BMP280;47054;39.716;2.904;2023-04-25T00:59:36;100174.47;;;25.29
61189;BMP280;47054;39.716;2.904;2023-04-25T01:02:21;100170.97;;;25.28
61189;BMP280;47054;39.716;2.904;2023-04-25T01:05:06;100172.91;;;25.28
61189;BMP280;47054;39.716;2.904;2023-04-25T01:07:51;100168.25;;;25.28
61189;BMP280;47054;39.716;2.904;2023-04-25T01:10:36;100165.56;;;25.28
61189;BMP280;47054;39.716;2.904;2023-04-25T01:13:21;100164.78;;;25.28
61189;BMP280;47054;39.716;2.904;2023-04-25T01:16:06;100161.66;;;25.29
61189;BMP280;47054;39.716;2.904;2023-04-25T01:18:51;100158.59;;;25.27
61189;BMP280;47054;39.716;2.904;2023-04-25T01:21:36;100154.69;;;25.28
61189;BMP280;47054;39.716;2.904;2023-04-25T01:24:21;100145.88;;;25.24
61189;BMP280;47054;39.716;2.904;2023-04-25T01:27:06;100143.84;;;25.28
61189;BMP280;47054;39.716;2.904;2023-04-25T01:29:54;100144.25;;;25.27
61189;BMP280;47054;39.716;2.904;2023-04-25T01:32:38;100148.50;;;25.28
61189;BMP280;47054;39.716;2.904;2023-04-25T01:35:24;100133.00;;;25.28
61189;BMP280;47054;39.716;2.904;2023-04-25T01:38:12;100137.66;;;25.28
61189;BMP280;47054;39.716;2.904;2023-04-25T01:40:56;100126.03;;;25.27
61189;BMP280;47054;39.716;2.904;2023-04-25T01:43:42;100122.13;;;25.28
61189;BMP280;47054;39.716;2.904;2023-04-25T01:46:27;100126.03;;;25.27
61189;BMP280;47054;39.716;2.904;2023-04-25T01:49:11;100112.44;;;25.27
61189;BMP280;47054;39.716;2.904;2023-04-25T01:51:57;100116.34;;;25.26
61189;BMP280;47054;39.716;2.904;2023-04-25T01:54:42;100106.25;;;25.27
61189;BMP280;47054;39.716;2.904;2023-04-25T01:57:29;100102.75;;;25.26
61189;BMP280;47054;39.716;2.904;2023-04-25T02:00:13;100106.25;;;25.27
61189;BMP280;47054;39.716;2.904;2023-04-25T02:02:58;100108.19;;;25.26
61189;BMP280;47054;39.716;2.904;2023-04-25T02:05:47;100103.22;;;25.25
61189;BMP280;47054;39.716;2.904;2023-04-25T02:08:32;100109.41;;;25.25
61189;BMP280;47054;39.716;2.904;2023-04-25T02:11:17;100099.72;;;25.24
61189;BMP280;47054;39.716;2.904;2023-04-25T02:14:14;100107.88;;;25.24
61189;BMP280;47054;39.716;2.904;2023-04-25T02:17:08;100105.16;;;25.24
61189;BMP280;47054;39.716;2.904;2023-04-25T02:19:52;100104.38;;;25.24
61189;BMP280;47054;39.716;2.904;2023-04-25T02:22:37;100109.03;;;25.23
61189;BMP280;47054;39.716;2.904;2023-04-25T02:25:24;100103.63;;;25.23
61189;BMP280;47054;39.716;2.904;2023-04-25T02:28:08;100105.63;;;25.23
61189;BMP280;47054;39.716;2.904;2023-04-25T02:30:54;100096.72;;;25.22
61189;BMP280;47054;39.716;2.904;2023-04-25T02:33:38;100106.34;;;25.23
61189;BMP280;47054;39.716;2.904;2023-04-25T02:36:23;100100.19;;;25.23
61189;BMP280;47054;39.716;2.904;2023-04-25T02:39:08;100108.72;;;25.21
61189;BMP280;47054;39.716;2.904;2023-04-25T02:41:52;100109.50;;;25.22
61189;BMP280;47054;39.716;2.904;2023-04-25T02:44:39;100114.94;;;25.22
61189;BMP280;47054;39.716;2.904;2023-04-25T02:47:24;100113.75;;;25.23
61189;BMP280;47054;39.716;2.904;2023-04-25T02:50:09;100103.69;;;25.20
61189;BMP280;47054;39.716;2.904;2023-04-25T02:52:54;100121.13;;;25.22
61189;BMP280;47054;39.716;2.904;2023-04-25T02:55:44;100115.72;;;25.22
61189;BMP280;47054;39.716;2.904;2023-04-25T02:58:29;100111.84;;;25.20
61189;BMP280;47054;39.716;2.904;2023-04-25T03:01:14;100118.81;;;25.21
61189;BMP280;47054;39.716;2.904;2023-04-25T03:03:59;100106.03;;;25.21
61189;BMP280;47054;39.716;2.904;2023-04-25T03:06:43;100111.44;;;25.21
61189;BMP280;47054;39.716;2.904;2023-04-25T03:09:28;100114.56;;;25.20
61189;BMP280;47054;39.716;2.904;2023-04-25T03:12:13;100113.38;;;25.21
61189;BMP280;47054;39.716;2.904;2023-04-25T03:14:57;100104.47;;;25.20
61189;BMP280;47054;39.716;2.904;2023-04-25T03:17:42;100108.41;;;25.19
61189;BMP280;47054;39.716;2.904;2023-04-25T03:20:26;100104.47;;;25.20
61189;BMP280;47054;39.716;2.904;2023-04-25T03:23:11;100112.63;;;25.20
61189;BMP280;47054;39.716;2.904;2023-04-25T03:25:58;100111.13;;;25.19
61189;BMP280;47054;39.716;2.904;2023-04-25T03:28:42;100101.44;;;25.18
61189;BMP280;47054;39.716;2.904;2023-04-25T03:31:27;100113.06;;;25.19
61189;BMP280;47054;39.716;2.904;2023-04-25T03:34:11;100121.22;;;25.19
61189;BMP280;47054;39.716;2.904;2023-04-25T03:36:56;100111.13;;;25.19
61189;BMP280;47054;39.716;2.904;2023-04-25T03:39:41;100111.84;;;25.20
61189;BMP280;47054;39.716;2.904;2023-04-25T03:42:26;100106.88;;;25.18
61189;BMP280;47054;39.716;2.904;2023-04-25T03:45:11;100107.72;;;25.15
61189;BMP280;47054;39.716;2.904;2023-04-25T03:47:56;100099.59;;;25.15
61189;BMP280;47054;39.716;2.904;2023-04-25T03:50:41;100103.78;;;25.16
61189;BMP280;47054;39.716;2.904;2023-04-25T03:53:26;100101.44;;;25.18
61189;BMP280;47054;39.716;2.904;2023-04-25T03:56:46;100096.09;;;25.15
61189;BMP280;47054;39.716;2.904;2023-04-25T03:59:37;100097.66;;;25.16
61189;BMP280;47054;39.716;2.904;2023-04-25T04:02:22;100099.59;;;25.15
61189;BMP280;47054;39.716;2.904;2023-04-25T04:05:07;100100.75;;;25.14
61189;BMP280;47054;39.716;2.904;2023-04-25T04:07:55;100103.47;;;25.14
61189;BMP280;47054;39.716;2.904;2023-04-25T04:10:40;100098.81;;;25.15
61189;BMP280;47054;39.716;2.904;2023-04-25T04:13:26;100093.03;;;25.13
61189;BMP280;47054;39.716;2.904;2023-04-25T04:16:11;100087.97;;;25.15
61189;BMP280;47054;39.716;2.904;2023-04-25T04:18:56;100082.53;;;25.15
61189;BMP280;47054;39.716;2.904;2023-04-25T04:21:41;100097.28;;;25.14
61189;BMP280;47054;39.716;2.904;2023-04-25T04:24:27;100086.44;;;25.14
61189;BMP280;47054;39.716;2.904;2023-04-25T04:27:18;100077.50;;;25.13
61189;BMP280;47054;39.716;2.904;2023-04-25T04:30:12;100081.78;;;25.14
61189;BMP280;47054;39.716;2.904;2023-04-25T04:33:09;100085.66;;;25.13
61189;BMP280;47054;39.716;2.904;2023-04-25T04:35:54;100074.03;;;25.13
61189;BMP280;47054;39.716;2.904;2023-04-25T04:38:41;100064.41;;;25.12
61189;BMP280;47054;39.716;2.904;2023-04-25T04:41:30;100072.53;;;25.12
61189;BMP280;47054;39.716;2.904;2023-04-25T04:44:26;100075.25;;;25.12
61189;BMP280;47054;39.716;2.904;2023-04-25T04:47:30;100065.56;;;25.11
61189;BMP280;47054;39.716;2.904;2023-04-25T04:50:29;100066.34;;;25.11
61189;BMP280;47054;39.716;2.904;2023-04-25T04:53:36;100064.13;;;25.06
61189;BMP280;47054;39.716;2.904;2023-04-25T04:56:30;100072.63;;;25.08
61189;BMP280;47054;39.716;2.904;2023-04-25T04:59:32;100074.16;;;25.09
61189;BMP280;47054;39.716;2.904;2023-04-25T05:02:26;100078.84;;;25.09
61189;BMP280;47054;39.716;2.904;2023-04-25T05:05:33;100076.50;;;25.07
61189;BMP280;47054;39.716;2.904;2023-04-25T05:08:37;100071.09;;;25.07
61189;BMP280;47054;39.716;2.904;2023-04-25T05:11:42;100068.06;;;25.05
61189;BMP280;47054;39.716;2.904;2023-04-25T05:14:55;100068.81;;;25.06
61189;BMP280;47054;39.716;2.904;2023-04-25T05:17:59;100063.38;;;25.06
61189;BMP280;47054;39.716;2.904;2023-04-25T05:21:02;100058.03;;;25.02
61189;BMP280;47054;39.716;2.904;2023-04-25T05:24:00;100057.59;;;25.03
61189;BMP280;47054;39.716;2.904;2023-04-25T05:27:04;100052.28;;;25.00
61189;BMP280;47054;39.716;2.904;2023-04-25T05:30:08;100056.84;;;25.03
61189;BMP280;47054;39.716;2.904;2023-04-25T05:33:05;100053.34;;;25.02
61189;BMP280;47054;39.716;2.904;2023-04-25T05:35:51;100050.25;;;25.04
61189;BMP280;47054;39.716;2.904;2023-04-25T05:38:36;100052.97;;;25.04
61189;BMP280;47054;39.716;2.904;2023-04-25T05:41:26;100057.59;;;25.03
61189;BMP280;47054;39.716;2.904;2023-04-25T05:44:19;100059.56;;;25.03
61189;BMP280;47054;39.716;2.904;2023-04-25T05:47:19;100071.59;;;25.02
61189;BMP280;47054;39.716;2.904;2023-04-25T05:50:39;100068.53;;;25.00
61189;BMP280;47054;39.716;2.904;2023-04-25T05:53:39;100070.09;;;25.01
61189;BMP280;47054;39.716;2.904;2023-04-25T05:56:24;100068.88;;;25.02
61189;BMP280;47054;39.716;2.904;2023-04-25T05:59:10;100070.88;;;25.02
61189;BMP280;47054;39.716;2.904;2023-04-25T06:01:55;100073.56;;;25.02
61189;BMP280;47054;39.716;2.904;2023-04-25T06:04:40;100068.16;;;25.02
61189;BMP280;47054;39.716;2.904;2023-04-25T06:07:25;100065.44;;;25.02
61189;BMP280;47054;39.716;2.904;2023-04-25T06:10:09;100067.69;;;25.03
61189;BMP280;47054;39.716;2.904;2023-04-25T06:12:54;100084.75;;;25.03
61189;BMP280;47054;39.716;2.904;2023-04-25T06:15:40;100084.75;;;25.03
61189;BMP280;47054;39.716;2.904;2023-04-25T06:18:24;100080.84;;;25.05
61189;BMP280;47054;39.716;2.904;2023-04-25T06:21:09;100092.47;;;25.05
61189;BMP280;47054;39.716;2.904;2023-04-25T06:23:55;100094.41;;;25.05
61189;BMP280;47054;39.716;2.904;2023-04-25T06:26:42;100096.38;;;25.04
61189;BMP280;47054;39.716;2.904;2023-04-25T06:29:27;100089.00;;;25.05
61189;BMP280;47054;39.716;2.904;2023-04-25T06:32:11;100097.91;;;25.05
61189;BMP280;47054;39.716;2.904;2023-04-25T06:34:56;100099.84;;;25.05
61189;BMP280;47054;39.716;2.904;2023-04-25T06:37:40;100104.06;;;25.06
61189;BMP280;47054;39.716;2.904;2023-04-25T06:40:25;100109.50;;;25.06
61189;BMP280;47054;39.716;2.904;2023-04-25T06:43:10;100107.97;;;25.05
61189;BMP280;47054;39.716;2.904;2023-04-25T06:46:19;100113.41;;;25.05
61189;BMP280;47054;39.716;2.904;2023-04-25T06:49:07;100110.25;;;25.06
61189;BMP280;47054;39.716;2.904;2023-04-25T06:51:52;100109.50;;;25.06
61189;BMP280;47054;39.716;2.904;2023-04-25T06:54:36;100106.03;;;25.05
61189;BMP280;47054;39.716;2.904;2023-04-25T06:57:33;100102.56;;;25.05
61189;BMP280;47054;39.716;2.904;2023-04-25T07:00:30;100099.06;;;25.04
61189;BMP280;47054;39.716;2.904;2023-04-25T07:03:16;100101.78;;;25.04
61189;BMP280;47054;39.716;2.904;2023-04-25T07:06:01;100098.66;;;25.06
61189;BMP280;47054;39.716;2.904;2023-04-25T07:08:47;100106.44;;;25.03
61189;BMP280;47054;39.716;2.904;2023-04-25T07:11:31;100097.91;;;25.05
61189;BMP280;47054;39.716;2.904;2023-04-25T07:14:16;100106.03;;;25.05
61189;BMP280;47054;39.716;2.904;2023-04-25T07:17:01;100101.78;;;25.04
61189;BMP280;47054;39.716;2.904;2023-04-25T07:19:47;100106.03;;;25.05
61189;BMP280;47054;39.716;2.904;2023-04-25T07:22:32;100100.63;;;25.05
61189;BMP280;47054;39.716;2.904;2023-04-25T07:25:17;100103.31;;;25.05
61189;BMP280;47054;39.716;2.904;2023-04-25T07:28:02;100107.97;;;25.05
61189;BMP280;47054;39.716;2.904;2023-04-25T07:30:47;100107.97;;;25.05
61189;BMP280;47054;39.716;2.904;2023-04-25T07:33:33;100107.28;;;25.00
61189;BMP280;47054;39.716;2.904;2023-04-25T07:36:18;100113.41;;;25.05
61189;BMP280;47054;39.716;2.904;2023-04-25T07:39:03;100104.16;;;25.02
61189;BMP280;47054;39.716;2.904;2023-04-25T07:41:48;100107.97;;;25.05
61189;BMP280;47054;39.716;2.904;2023-04-25T07:44:39;100100.63;;;25.05
61189;BMP280;47054;39.716;2.904;2023-04-25T07:47:25;100101.00;;;25.03
61189;BMP280;47054;39.716;2.904;2023-04-25T07:50:11;100099.84;;;25.05
61189;BMP280;47054;39.716;2.904;2023-04-25T07:52:56;100098.31;;;25.03
61189;BMP280;47054;39.716;2.904;2023-04-25T07:55:50;100097.91;;;25.05
61189;BMP280;47054;39.716;2.904;2023-04-25T07:58:36;100090.94;;;25.04
61189;BMP280;47054;39.716;2.904;2023-04-25T08:01:23;100097.91;;;25.05
61189;BMP280;47054;39.716;2.904;2023-04-25T08:04:16;100088.22;;;25.04
61189;BMP280;47054;39.716;2.904;2023-04-25T08:07:13;100092.09;;;25.03
61189;BMP280;47054;39.716;2.904;2023-04-25T08:10:11;100093.66;;;25.04
61189;BMP280;47054;39.716;2.904;2023-04-25T08:12:56;100088.22;;;25.04
61189;BMP280;47054;39.716;2.904;2023-04-25T08:15:41;100089.78;;;25.05
61189;BMP280;47054;39.716;2.904;2023-04-25T08:18:26;100088.53;;;25.06
61189;BMP280;47054;39.716;2.904;2023-04-25T08:21:10;100085.09;;;25.06
61189;BMP280;47054;39.716;2.904;2023-04-25T08:23:56;100088.53;;;25.06
61189;BMP280;47054;39.716;2.904;2023-04-25T08:26:47;100100.16;;;25.07
61189;BMP280;47054;39.716;2.904;2023-04-25T08:29:34;100102.88;;;25.07
61189;BMP280;47054;39.716;2.904;2023-04-25T08:32:19;100097.06;;;25.08
61189;BMP280;47054;39.716;2.904;2023-04-25T08:35:21;100093.97;;;25.06
61189;BMP280;47054;39.716;2.904;2023-04-25T08:38:07;100085.81;;;25.06
61189;BMP280;47054;39.716;2.904;2023-04-25T08:40:52;100093.56;;;25.08
61189;BMP280;47054;39.716;2.904;2023-04-25T08:43:41;100086.97;;;25.09
61189;BMP280;47054;39.716;2.904;2023-04-25T08:46:27;100086.19;;;25.08
61189;BMP280;47054;39.716;2.904;2023-04-25T08:49:25;100096.28;;;25.08
61189;BMP280;47054;39.716;2.904;2023-04-25T08:52:11;100095.09;;;25.09
61189;BMP280;47054;39.716;2.904;2023-04-25T08:54:57;100096.69;;;25.06
61189;BMP280;47054;39.716;2.904;2023-04-25T08:57:43;100100.94;;;25.07
61189;BMP280;47054;39.716;2.904;2023-04-25T09:00:29;100111.38;;;25.09
61189;BMP280;47054;39.716;2.904;2023-04-25T09:03:14;100113.63;;;25.10
61189;BMP280;47054;39.716;2.904;2023-04-25T09:05:59;100107.44;;;25.10
61189;BMP280;47054;39.716;2.904;2023-04-25T09:08:44;100112.88;;;25.10
61189;BMP280;47054;39.716;2.904;2023-04-25T09:11:29;100106.69;;;25.09
61189;BMP280;47054;39.716;2.904;2023-04-25T09:17:36;100118.28;;;25.10
61189;BMP280;47054;39.716;2.904;2023-04-25T09:20:25;100106.69;;;25.09
61189;BMP280;47054;39.716;2.904;2023-04-25T09:23:10;100102.03;;;25.10
61189;BMP280;47054;39.716;2.904;2023-04-25T09:25:56;100106.69;;;25.09
61189;BMP280;47054;39.716;2.904;2023-04-25T09:28:41;100106.28;;;25.11
61189;BMP280;47054;39.716;2.904;2023-04-25T09:31:27;100109.41;;;25.09
61189;BMP280;47054;39.716;2.904;2023-04-25T09:34:17;100112.13;;;25.09
61189;BMP280;47054;39.716;2.904;2023-04-25T09:37:09;100109.16;;;25.03
61189;BMP280;47054;39.716;2.904;2023-04-25T09:40:26;100109.16;;;25.03
61189;BMP280;47054;39.716;2.904;2023-04-25T09:43:21;100114.19;;;25.05
61189;BMP280;47054;39.716;2.904;2023-04-25T09:46:10;100095.94;;;25.06
61189;BMP280;47054;39.716;2.904;2023-04-25T09:49:06;100105.28;;;25.05
61189;BMP280;47054;39.716;2.904;2023-04-25T09:51:58;100112.22;;;25.06
61189;BMP280;47054;39.716;2.904;2023-04-25T09:54:47;100116.44;;;25.07
61189;BMP280;47054;39.716;2.904;2023-04-25T09:57:35;100109.94;;;25.04
61189;BMP280;47054;39.716;2.904;2023-04-25T10:00:25;100112.94;;;25.06
61189;BMP280;47054;39.716;2.904;2023-04-25T10:03:10;100107.13;;;25.08
61189;BMP280;47054;39.716;2.904;2023-04-25T10:06:24;100110.25;;;25.06
61189;BMP280;47054;39.716;2.904;2023-04-25T10:09:11;100099.38;;;25.06
61189;BMP280;47054;39.716;2.904;2023-04-25T10:11:58;100102.09;;;25.06
61189;BMP280;47054;39.716;2.904;2023-04-25T10:14:44;100091.25;;;25.06
61189;BMP280;47054;39.716;2.904;2023-04-25T10:17:28;100095.94;;;25.06
61189;BMP280;47054;39.716;2.904;2023-04-25T10:20:14;100094.81;;;25.03
61189;BMP280;47054;39.716;2.904;2023-04-25T10:23:09;100103.25;;;25.09
61189;BMP280;47054;39.716;2.904;2023-04-25T10:25:57;100102.88;;;25.07
61189;BMP280;47054;39.716;2.904;2023-04-25T10:28:59;100099.00;;;25.08
61189;BMP280;47054;39.716;2.904;2023-04-25T10:31:46;100104.06;;;25.06
61189;BMP280;47054;39.716;2.904;2023-04-25T10:34:43;100102.88;;;25.07
61189;BMP280;47054;39.716;2.904;2023-04-25T10:37:27;100103.31;;;25.05
61189;BMP280;47054;39.716;2.904;2023-04-25T10:40:21;100092.03;;;25.07
61189;BMP280;47054;39.716;2.904;2023-04-25T10:46:26;100092.47;;;25.05
61189;BMP280;47054;39.716;2.904;2023-04-25T10:49:10;100090.94;;;25.04
61189;BMP280;47054;39.716;2.904;2023-04-25T10:52:17;100089.78;;;25.05
61189;BMP280;47054;39.716;2.904;2023-04-25T10:55:03;100082.47;;;25.02
61189;BMP280;47054;39.716;2.904;2023-04-25T10:57:48;100091.72;;;25.05
61189;BMP280;47054;39.716;2.904;2023-04-25T11:00:35;100087.13;;;25.02
61189;BMP280;47054;39.716;2.904;2023-04-25T11:03:24;100088.22;;;25.04
61189;BMP280;47054;39.716;2.904;2023-04-25T11:06:34;100074.22;;;25.06
61189;BMP280;47054;39.716;2.904;2023-04-25T11:09:23;100078.31;;;24.97
61189;BMP280;47054;39.716;2.904;2023-04-25T11:12:08;100084.50;;;24.98
61189;BMP280;47054;39.716;2.904;2023-04-25T11:15:04;100072.81;;;25.01
61189;BMP280;47054;39.716;2.904;2023-04-25T11:17:51;100065.06;;;24.99
61189;BMP280;47054;39.716;2.904;2023-04-25T11:20:36;100059.63;;;24.99
61189;BMP280;47054;39.716;2.904;2023-04-25T11:23:20;100050.31;;;25.00
61189;BMP280;47054;39.716;2.904;2023-04-25T11:26:05;100046.84;;;25.00
61189;BMP280;47054;39.716;2.904;2023-04-25T11:28:49;100045.22;;;25.02
61189;BMP280;47054;39.716;2.904;2023-04-25T11:31:34;100046.00;;;25.03
61189;BMP280;47054;39.716;2.904;2023-04-25T11:34:19;100032.44;;;25.03
61189;BMP280;47054;39.716;2.904;2023-04-25T11:37:03;100029.72;;;25.03
61189;BMP280;47054;39.716;2.904;2023-04-25T11:39:48;100026.69;;;25.01
61189;BMP280;47054;39.716;2.904;2023-04-25T11:42:33;100027.78;;;25.03
61189;BMP280;47054;39.716;2.904;2023-04-25T11:45:18;100025.81;;;25.04
61189;BMP280;47054;39.716;2.904;2023-04-25T11:48:03;100027.00;;;25.03
61189;BMP280;47054;39.716;2.904;2023-04-25T11:50:48;100031.25;;;25.04
61189;BMP280;47054;39.716;2.904;2023-04-25T11:53:32;100024.28;;;25.03
61189;BMP280;47054;39.716;2.904;2023-04-25T11:56:17;100011.59;;;25.00
61189;BMP280;47054;39.716;2.904;2023-04-25T11:59:03;100023.13;;;25.04
61189;BMP280;47054;39.716;2.904;2023-04-25T12:01:49;100014.22;;;25.03
61189;BMP280;47054;39.716;2.904;2023-04-25T12:04:34;100014.22;;;25.03
61189;BMP280;47054;39.716;2.904;2023-04-25T12:07:18;100008.38;;;25.05
61189;BMP280;47054;39.716;2.904;2023-04-25T12:10:07;100013.81;;;25.05
61189;BMP280;47054;39.716;2.904;2023-04-25T12:12:51;100001.41;;;25.04
61189;BMP280;47054;39.716;2.904;2023-04-25T12:15:40;100003.69;;;25.06
61189;BMP280;47054;39.716;2.904;2023-04-25T12:18:25;100004.91;;;25.05
61189;BMP280;47054;39.716;2.904;2023-04-25T12:21:11;99996.75;;;25.05
61189;BMP280;47054;39.716;2.904;2023-04-25T12:23:56;99997.94;;;25.03
61189;BMP280;47054;39.716;2.904;2023-04-25T12:27:04;99997.06;;;25.07
61189;BMP280;47054;39.716;2.904;2023-04-25T12:29:53;99994.81;;;25.05
61189;BMP280;47054;39.716;2.904;2023-04-25T12:32:39;99984.38;;;25.03
61189;BMP280;47054;39.716;2.904;2023-04-25T12:35:23;99983.97;;;25.05
61189;BMP280;47054;39.716;2.904;2023-04-25T12:38:07;99977.78;;;25.05
61189;BMP280;47054;39.716;2.904;2023-04-25T12:40:53;99980.47;;;25.05
61189;BMP280;47054;39.716;2.904;2023-04-25T12:43:38;99973.84;;;25.06
61189;BMP280;47054;39.716;2.904;2023-04-25T12:46:22;99975.81;;;25.05
61189;BMP280;47054;39.716;2.904;2023-04-25T12:49:08;99964.59;;;25.03
61189;BMP280;47054;39.716;2.904;2023-04-25T12:51:52;99973.44;;;25.07
61189;BMP280;47054;39.716;2.904;2023-04-25T12:54:37;99973.84;;;25.06
61189;BMP280;47054;39.716;2.904;2023-04-25T12:57:23;99969.94;;;25.07
61189;BMP280;47054;39.716;2.904;2023-04-25T13:00:08;99966.06;;;25.08
61189;BMP280;47054;39.716;2.904;2023-04-25T13:02:54;99972.66;;;25.07
61189;BMP280;47054;39.716;2.904;2023-04-25T13:05:39;99970.72;;;25.07
61189;BMP280;47054;39.716;2.904;2023-04-25T13:08:24;99969.53;;;25.08
61189;BMP280;47054;39.716;2.904;2023-04-25T13:11:09;99963.34;;;25.08
61189;BMP280;47054;39.716;2.904;2023-04-25T13:13:55;99971.47;;;25.08
61189;BMP280;47054;39.716;2.904;2023-04-25T13:16:40;99961.41;;;25.08
61189;BMP280;47054;39.716;2.904;2023-04-25T13:19:25;99959.47;;;25.09
61189;BMP280;47054;39.716;2.904;2023-04-25T13:22:10;99954.78;;;25.09
61189;BMP280;47054;39.716;2.904;2023-04-25T13:24:55;99947.38;;;25.10
61189;BMP280;47054;39.716;2.904;2023-04-25T13:27:40;99948.59;;;25.09
61189;BMP280;47054;39.716;2.904;2023-04-25T13:30:24;99957.50;;;25.09
61189;BMP280;47054;39.716;2.904;2023-04-25T13:33:09;99952.50;;;25.08
61189;BMP280;47054;39.716;2.904;2023-04-25T13:35:54;99949.34;;;25.09
61189;BMP280;47054;39.716;2.904;2023-04-25T13:38:40;99953.56;;;25.10
61189;BMP280;47054;39.716;2.904;2023-04-25T13:41:27;99946.63;;;25.09
61189;BMP280;47054;39.716;2.904;2023-04-25T13:44:12;99952.50;;;25.08
61189;BMP280;47054;39.716;2.904;2023-04-25T13:46:57;99953.56;;;25.10
61189;BMP280;47054;39.716;2.904;2023-04-25T13:49:42;99947.84;;;25.08
61189;BMP280;47054;39.716;2.904;2023-04-25T13:52:26;99950.84;;;25.10
61189;BMP280;47054;39.716;2.904;2023-04-25T13:55:11;99951.63;;;25.11
61189;BMP280;47054;39.716;2.904;2023-04-25T13:57:56;99946.97;;;25.11
61189;BMP280;47054;39.716;2.904;2023-04-25T14:00:41;99936.88;;;25.12
61189;BMP280;47054;39.716;2.904;2023-04-25T14:03:27;99936.13;;;25.11
61189;BMP280;47054;39.716;2.904;2023-04-25T14:06:12;99917.31;;;25.04
61189;BMP280;47054;39.716;2.904;2023-04-25T14:08:57;99922.56;;;25.11
61189;BMP280;47054;39.716;2.904;2023-04-25T14:11:44;99914.41;;;25.11
61189;BMP280;47054;39.716;2.904;2023-04-25T14:14:29;99918.66;;;25.12
61189;BMP280;47054;39.716;2.904;2023-04-25T14:17:14;99911.25;;;25.13
61189;BMP280;47054;39.716;2.904;2023-04-25T14:19:58;99917.13;;;25.11
61189;BMP280;47054;39.716;2.904;2023-04-25T14:22:43;99913.97;;;25.13
61189;BMP280;47054;39.716;2.904;2023-04-25T14:25:29;99912.09;;;25.10
61189;BMP280;47054;39.716;2.904;2023-04-25T14:28:14;99924.41;;;25.14
61189;BMP280;47054;39.716;2.904;2023-04-25T14:30:59;99914.72;;;25.13
61189;BMP280;47054;39.716;2.904;2023-04-25T14:33:45;99914.72;;;25.13
61189;BMP280;47054;39.716;2.904;2023-04-25T14:36:30;99917.13;;;25.11
61189;BMP280;47054;39.716;2.904;2023-04-25T14:39:15;99923.63;;;25.14
61189;BMP280;47054;39.716;2.904;2023-04-25T14:42:01;99927.13;;;25.14
61189;BMP280;47054;39.716;2.904;2023-04-25T14:44:45;99923.22;;;25.15
61189;BMP280;47054;39.716;2.904;2023-04-25T14:47:30;99913.16;;;25.16
61189;BMP280;47054;39.716;2.904;2023-04-25T14:50:15;99915.88;;;25.16
61189;BMP280;47054;39.716;2.904;2023-04-25T14:53:00;99911.91;;;25.17
61189;BMP280;47054;39.716;2.904;2023-04-25T14:55:44;99911.91;;;25.17
61189;BMP280;47054;39.716;2.904;2023-04-25T14:58:29;99901.06;;;25.17
61189;BMP280;47054;39.716;2.904;2023-04-25T15:01:13;99904.16;;;25.19
61189;BMP280;47054;39.716;2.904;2023-04-25T15:03:58;99902.59;;;25.18
61189;BMP280;47054;39.716;2.904;2023-04-25T15:06:43;99902.19;;;25.19
61189;BMP280;47054;39.716;2.904;2023-04-25T15:09:27;99904.16;;;25.19
61189;BMP280;47054;39.716;2.904;2023-04-25T15:12:12;99906.84;;;25.19
61189;BMP280;47054;39.716;2.904;2023-04-25T15:14:57;99903.69;;;25.20
61189;BMP280;47054;39.716;2.904;2023-04-25T15:17:41;99905.63;;;25.20
61189;BMP280;47054;39.716;2.904;2023-04-25T15:20:26;99913.34;;;25.21
61189;BMP280;47054;39.716;2.904;2023-04-25T15:23:11;99906.00;;;25.22
61189;BMP280;47054;39.716;2.904;2023-04-25T15:25:56;99919.56;;;25.22
61189;BMP280;47054;39.716;2.904;2023-04-25T15:28:40;99917.63;;;25.22
61189;BMP280;47054;39.716;2.904;2023-04-25T15:31:26;99915.66;;;25.23
61189;BMP280;47054;39.716;2.904;2023-04-25T15:34:11;99919.09;;;25.23
61189;BMP280;47054;39.716;2.904;2023-04-25T15:36:55;99924.53;;;25.23
61189;BMP280;47054;39.716;2.904;2023-04-25T15:39:40;99906.28;;;25.24
61189;BMP280;47054;39.716;2.904;2023-04-25T15:42:25;99911.72;;;25.24
61189;BMP280;47054;39.716;2.904;2023-04-25T15:45:10;99901.94;;;25.26
61189;BMP280;47054;39.716;2.904;2023-04-25T15:47:55;99899.22;;;25.26
61189;BMP280;47054;39.716;2.904;2023-04-25T15:50:40;99903.94;;;25.26
61189;BMP280;47054;39.716;2.904;2023-04-25T15:53:25;99900.88;;;25.24
61189;BMP280;47054;39.716;2.904;2023-04-25T15:56:10;99906.19;;;25.27
61189;BMP280;47054;39.716;2.904;2023-04-25T15:58:55;99906.19;;;25.27
61189;BMP280;47054;39.716;2.904;2023-04-25T16:01:39;99912.41;;;25.28